M/V Oriole — WDE6982 — position and weather

sailwx.info

Track history (hours):
 
Tides and Currents Weather Stations Pressure Air Temp Water Temp Dewpoint Dewpoint Depression Visibility Wind Speed Wind Dir Waves Ship Positions

M/V Oriole

Owner: NATIVE SON INC., ST. THOMAS, VI. More information available from US FCC via Universal Licensing System and Coast Guard Vessel Documentation Center.

Last reported at 2015-Jan-28 12:29 UTC. Time now 2015-Jan-28 16:14 UTC.
Position N 18°23' W 064°42'.

Length 25 m.

Type: Passenger vessel. MMSI: 366755670.

Date/timePositionNaut miles runAvg speedWind from/ knotsBaromVisibWave heightAir tempDewpointWater temp
2015-Jan-28 12:29N 18°23' W 064°42'6 6.4
2015-Jan-28 11:29N 18°20' W 064°48'2 0.2
2015-Jan-27 21:27N 18°22' W 064°47'1 0.7
2015-Jan-27 20:16N 18°21' W 064°47'5 1.4
2015-Jan-27 16:33N 18°23' W 064°42'0 0.0
2015-Jan-27 12:17N 18°23' W 064°42'7 8.1
2015-Jan-27 11:27N 18°20' W 064°49'7 7.3
2015-Jan-27 10:30N 18°23' W 064°42'2 0.1
2015-Jan-26 21:27N 18°23' W 064°44'3 1.5
2015-Jan-26 19:31N 18°22' W 064°47'2 1.0
2015-Jan-26 17:14N 18°20' W 064°48'7 8.1
2015-Jan-26 16:24N 18°23' W 064°42'7 2.4
2015-Jan-26 13:17N 18°20' W 064°49'710.2
2015-Jan-26 12:33N 18°23' W 064°42'6 5.8
2015-Jan-26 11:29N 18°20' W 064°48'6 6.3
2015-Jan-26 10:33N 18°23' W 064°42'3 0.2
2015-Jan-25 19:34N 18°22' W 064°46'2 0.4
2015-Jan-25 14:31N 18°23' W 064°44'3 3.4
2015-Jan-25 13:32N 18°23' W 064°40'2 0.1
2015-Jan-24 21:27N 18°23' W 064°42'3 1.4
2015-Jan-24 19:04N 18°23' W 064°39'611.7
2015-Jan-24 18:33N 18°23' W 064°45'5 1.2
2015-Jan-24 14:28N 18°20' W 064°49'11 0.7
2015-Jan-23 22:22N 18°24' W 064°38'1210.4
2015-Jan-23 21:15N 18°20' W 064°50'2 3.1
2015-Jan-23 20:32N 18°20' W 064°48'4 4.4
2015-Jan-23 19:33N 18°23' W 064°44'5 2.3
2015-Jan-23 17:27N 18°20' W 064°48'7 7.3
2015-Jan-23 16:31N 18°23' W 064°42'8 2.6
2015-Jan-23 13:17N 18°20' W 064°50'8 9.7
2015-Jan-23 12:24N 18°23' W 064°42'6 6.5
2015-Jan-23 11:28N 18°20' W 064°48'6 6.7
2015-Jan-23 10:32N 18°23' W 064°42'3 0.3
2015-Jan-22 22:15N 18°23' W 064°39'1115.2
2015-Jan-22 21:33N 18°20' W 064°50'2 1.8
2015-Jan-22 20:28N 18°20' W 064°48'4 4.4
2015-Jan-22 19:33N 18°23' W 064°44'6 2.6
2015-Jan-22 17:12N 18°20' W 064°50'812.3
2015-Jan-22 16:32N 18°23' W 064°42'8 2.5
2015-Jan-22 13:23N 18°20' W 064°50'8 9.4
2015-Jan-22 12:33N 18°23' W 064°42'6 6.0
2015-Jan-22 11:32N 18°20' W 064°48'9 0.7
2015-Jan-21 22:11N 18°23' W 064°39'711.7
2015-Jan-21 21:33N 18°22' W 064°46'2 2.3
2015-Jan-21 20:32N 18°20' W 064°48'3 2.9
2015-Jan-21 19:33N 18°22' W 064°46'4 1.8
2015-Jan-21 17:14N 18°20' W 064°50'810.6
2015-Jan-21 16:30N 18°23' W 064°42'8 2.4
2015-Jan-21 13:20N 18°20' W 064°50'8 9.4
2015-Jan-21 12:30N 18°23' W 064°42'8 8.0
2015-Jan-21 11:28N 18°20' W 064°50'8 8.9
2015-Jan-21 10:33N 18°23' W 064°42'5 0.4
2015-Jan-20 21:33N 18°22' W 064°47'2 1.8
2015-Jan-20 20:33N 18°20' W 064°48'2 2.3
2015-Jan-20 19:32N 18°22' W 064°46'4 2.0
2015-Jan-20 17:32N 18°20' W 064°50'8 7.0
2015-Jan-20 16:22N 18°23' W 064°42'8 2.6
2015-Jan-20 13:23N 18°20' W 064°50'8 9.4
2015-Jan-20 12:33N 18°23' W 064°42'6 5.9
2015-Jan-20 11:31N 18°20' W 064°48'8 7.7
2015-Jan-20 10:33N 18°23' W 064°40'0 0.0
2015-Jan-19 19:33N 18°23' W 064°41'8 1.6
2015-Jan-19 14:25N 18°20' W 064°49'7 0.3
2015-Jan-18 13:33N 18°23' W 064°42'  
Track history (hours):
 
Tides and Currents Weather Stations Pressure Air Temp Water Temp Dewpoint Dewpoint Depression Visibility Wind Speed Wind Dir Waves Ship Positions

M/V Oriole

Owner: NATIVE SON INC., ST. THOMAS, VI. More information available from US FCC via Universal Licensing System and Coast Guard Vessel Documentation Center.

Last reported at 2015-Jan-28 12:29 UTC. Time now 2015-Jan-28 16:14 UTC.
Position N 18°23' W 064°42'.

Length 25 m.

Type: Passenger vessel. MMSI: 366755670.

Date/timePositionNaut miles runAvg speedWind from/ knotsBaromVisibWave heightAir tempDewpointWater temp
2015-Jan-28 12:29N 18°23' W 064°42'6 6.4
2015-Jan-28 11:29N 18°20' W 064°48'2 0.2
2015-Jan-27 21:27N 18°22' W 064°47'1 0.7
2015-Jan-27 20:16N 18°21' W 064°47'5 1.4
2015-Jan-27 16:33N 18°23' W 064°42'0 0.0
2015-Jan-27 12:17N 18°23' W 064°42'7 8.1
2015-Jan-27 11:27N 18°20' W 064°49'7 7.3
2015-Jan-27 10:30N 18°23' W 064°42'2 0.1
2015-Jan-26 21:27N 18°23' W 064°44'3 1.5
2015-Jan-26 19:31N 18°22' W 064°47'2 1.0
2015-Jan-26 17:14N 18°20' W 064°48'7 8.1
2015-Jan-26 16:24N 18°23' W 064°42'7 2.4
2015-Jan-26 13:17N 18°20' W 064°49'710.2
2015-Jan-26 12:33N 18°23' W 064°42'6 5.8
2015-Jan-26 11:29N 18°20' W 064°48'6 6.3
2015-Jan-26 10:33N 18°23' W 064°42'3 0.2
2015-Jan-25 19:34N 18°22' W 064°46'2 0.4
2015-Jan-25 14:31N 18°23' W 064°44'3 3.4
2015-Jan-25 13:32N 18°23' W 064°40'2 0.1
2015-Jan-24 21:27N 18°23' W 064°42'3 1.4
2015-Jan-24 19:04N 18°23' W 064°39'611.7
2015-Jan-24 18:33N 18°23' W 064°45'5 1.2
2015-Jan-24 14:28N 18°20' W 064°49'11 0.7
2015-Jan-23 22:22N 18°24' W 064°38'1210.4
2015-Jan-23 21:15N 18°20' W 064°50'2 3.1
2015-Jan-23 20:32N 18°20' W 064°48'4 4.4
2015-Jan-23 19:33N 18°23' W 064°44'5 2.3
2015-Jan-23 17:27N 18°20' W 064°48'7 7.3
2015-Jan-23 16:31N 18°23' W 064°42'8 2.6
2015-Jan-23 13:17N 18°20' W 064°50'8 9.7
2015-Jan-23 12:24N 18°23' W 064°42'6 6.5
2015-Jan-23 11:28N 18°20' W 064°48'6 6.7
2015-Jan-23 10:32N 18°23' W 064°42'3 0.3
2015-Jan-22 22:15N 18°23' W 064°39'1115.2
2015-Jan-22 21:33N 18°20' W 064°50'2 1.8
2015-Jan-22 20:28N 18°20' W 064°48'4 4.4
2015-Jan-22 19:33N 18°23' W 064°44'6 2.6
2015-Jan-22 17:12N 18°20' W 064°50'812.3
2015-Jan-22 16:32N 18°23' W 064°42'8 2.5
2015-Jan-22 13:23N 18°20' W 064°50'8 9.4
2015-Jan-22 12:33N 18°23' W 064°42'6 6.0
2015-Jan-22 11:32N 18°20' W 064°48'9 0.7
2015-Jan-21 22:11N 18°23' W 064°39'711.7
2015-Jan-21 21:33N 18°22' W 064°46'2 2.3
2015-Jan-21 20:32N 18°20' W 064°48'3 2.9
2015-Jan-21 19:33N 18°22' W 064°46'4 1.8
2015-Jan-21 17:14N 18°20' W 064°50'810.6
2015-Jan-21 16:30N 18°23' W 064°42'8 2.4
2015-Jan-21 13:20N 18°20' W 064°50'8 9.4
2015-Jan-21 12:30N 18°23' W 064°42'8 8.0
2015-Jan-21 11:28N 18°20' W 064°50'8 8.9
2015-Jan-21 10:33N 18°23' W 064°42'5 0.4
2015-Jan-20 21:33N 18°22' W 064°47'2 1.8
2015-Jan-20 20:33N 18°20' W 064°48'2 2.3
2015-Jan-20 19:32N 18°22' W 064°46'4 2.0
2015-Jan-20 17:32N 18°20' W 064°50'8 7.0
2015-Jan-20 16:22N 18°23' W 064°42'8 2.6
2015-Jan-20 13:23N 18°20' W 064°50'8 9.4
2015-Jan-20 12:33N 18°23' W 064°42'6 5.9
2015-Jan-20 11:31N 18°20' W 064°48'8 7.7
2015-Jan-20 10:33N 18°23' W 064°40'0 0.0
2015-Jan-19 19:33N 18°23' W 064°41'8 1.6
2015-Jan-19 14:25N 18°20' W 064°49'7 0.3
2015-Jan-18 13:33N 18°23' W 064°42'  

Dump ship's entire track history